Date,TemperatureHighF,TemperatureAvgF,TemperatureLowF,DewpointHighF,DewpointAvgF,DewpointLowF,HumidityHigh,HumidityAvg,HumidityLow,PressureMaxIn,PressureMinIn,WindSpeedMaxMPH,WindSpeedAvgMPH,GustSpeedMaxMPH,PrecipitationSumIn
2013-1-1,75,62,50,58,54,49,99,80,53,32.44,32.25,10,2,10,0.00
2013-1-2,77,66,58,66,61,55,95,84,67,32.29,32.20,8,2,9,0.00
2013-1-3,64,58,49,62,56,48,98,95,87,32.46,32.28,10,2,11,0.15
2013-1-4,61,52,46,51,48,44,98,87,67,32.54,32.43,12,3,14,0.01
2013-1-5,69,55,41,53,47,38,98,76,51,32.54,32.45,7,2,9,0.00
2013-1-6,68,59,55,57,54,50,96,83,68,32.47,32.32,10,2,11,0.04
2013-1-7,65,55,47,54,48,42,96,77,60,32.50,32.39,9,3,12,0.00
2013-1-8,78,65,55,66,59,51,93,83,65,32.48,32.39,8,2,9,0.00
2013-1-9,81,70,62,70,65,60,97,85,64,32.56,32.45,7,2,8,0.00
2013-1-10,68,68,68,66,66,65,94,93,92,32.57,32.55,3,1,3,0.00
2013-1-11,84,69,60,68,61,58,97,78,46,32.42,32.39,5,1,5,0.00
2013-1-12,84,70,58,67,60,57,96,75,45,32.43,32.34,6,1,7,0.00
2013-1-16,82,69,60,65,60,56,93,75,46,0.00,40.00,6,1,6,0.00
2013-1-17,72,58,42,62,52,32,94,80,57,0.00,40.00,19,4,19,0.02
2013-1-18,61,49,40,44,39,31,76,67,53,0.00,40.00,14,5,14,0.01
2013-1-19,70,57,46,54,48,40,88,73,53,0.00,40.00,8,3,8,0.00
2013-1-20,74,62,51,54,50,47,90,69,40,0.00,40.00,7,2,7,0.00
2013-1-21,72,59,49,50,47,42,90,68,44,0.00,40.00,11,2,11,0.00
2013-1-22,62,52,44,42,34,25,70,52,26,32.50,32.44,8,3,8,0.00
2013-1-23,64,49,34,41,32,25,81,55,25,32.61,32.50,11,2,12,0.00
2013-1-24,74,57,44,51,45,38,87,67,37,32.52,32.41,15,3,17,0.00
2013-1-25,74,58,52,54,50,47,87,76,47,32.53,32.48,5,2,5,0.00
2013-1-26,70,56,46,54,46,39,85,71,53,0.00,40.00,8,3,8,0.00
2013-1-27,74,62,55,54,51,47,90,70,40,0.00,40.00,7,2,7,0.00
2013-1-28,72,58,49,50,48,45,90,70,44,0.00,40.00,11,2,11,0.00
2013-1-29,62,53,45,45,34,25,70,52,26,0.00,40.00,8,3,8,0.00
2013-1-30,64,49,34,40,31,25,79,53,25,0.00,40.00,11,2,11,0.00
2013-1-31,74,56,44,51,44,38,87,67,37,0.00,40.00,15,3,15,0.00
2013-2-1,74,56,45,54,46,32,87,70,45,32.52,32.50,5,2,5,0.19
2013-2-2,70,51,35,37,30,21,82,46,23,32.55,32.37,5,2,7,0.00
2013-2-3,68,53,40,43,32,20,83,50,16,32.40,32.26,14,5,15,0.00
2013-2-4,67,53,39,44,38,32,92,62,28,32.33,32.26,6,1,9,0.00
2013-2-5,72,57,41,51,44,38,93,65,35,32.31,32.22,4,1,7,0.00
2013-2-6,72,62,56,58,54,48,87,76,61,32.35,32.26,5,1,6,0.01
2013-2-7,81,66,59,64,60,55,93,85,47,32.31,32.07,6,2,11,0.37
2013-2-8,73,64,55,62,55,51,87,74,52,32.28,32.08,13,6,14,0.00
2013-2-9,73,60,48,51,46,42,89,59,40,32.45,32.38,10,3,10,0.00
2013-2-10,80,63,50,56,52,43,89,68,42,32.49,32.38,11,2,11,0.00
2013-2-11,86,70,59,61,58,54,88,68,42,32.40,32.29,11,2,11,0.00
2013-2-12,87,71,63,65,63,60,95,77,44,32.30,32.11,11,2,11,0.00
2013-2-13,80,71,62,69,64,52,86,78,66,32.16,32.04,16,3,16,0.07
2013-2-14,63,54,47,54,48,44,90,80,67,32.29,32.12,12,3,12,0.07
2013-2-15,72,53,40,44,41,37,92,67,30,32.30,32.17,9,2,9,0.01
2013-2-16,57,49,41,45,37,16,90,65,32,32.34,32.12,25,6,25,0.00
2013-2-17,50,36,30,22,17,8,65,46,22,32.56,32.35,17,4,17,0.00
2013-2-18,70,50,28,41,30,17,83,51,22,32.60,32.44,11,2,11,0.00
2013-2-19,74,60,43,58,49,38,88,68,37,32.44,29.98,15,3,15,0.72
2013-2-20,74,58,48,58,45,34,87,64,37,30.26,29.85,15,3,15,0.72
2013-2-21,82,60,44,56,46,40,89,64,37,30.22,29.91,8,1,8,0.00
2013-2-22,90,71,57,64,59,51,89,69,36,30.08,29.71,8,2,8,0.31
2013-2-23,84,71,61,67,63,56,94,77,51,29.88,29.56,12,2,12,0.20
2013-2-24,75,64,59,62,58,54,92,82,59,29.95,29.70,11,2,11,0.08
2013-2-25,77,64,58,64,59,54,90,84,64,29.89,29.64,11,2,11,0.21
2013-2-26,80,68,59,66,59,50,92,77,36,29.83,29.48,17,3,17,0.34
2013-2-27,70,60,53,54,46,40,84,62,36,30.06,29.78,15,3,15,0.00
2013-2-28,74,59,47,46,42,29,85,57,23,30.12,29.77,21,5,21,0.00
2013-3-1,63,54,47,44,35,29,77,51,29,30.19,29.91,17,6,17,0.00
2013-3-2,57,46,37,35,29,18,79,53,24,30.29,30.01,25,6,25,0.01
2013-3-3,51,40,33,30,26,24,78,60,36,30.39,30.08,21,6,21,0.00
2013-3-4,68,48,30,38,26,17,76,49,19,30.58,30.12,11,2,11,0.00
2013-3-5,79,59,40,56,44,34,85,61,32,30.36,29.80,11,2,11,0.00
2013-3-6,65,53,43,56,28,20,75,41,21,30.20,29.81,29,10,29,0.00
2013-3-7,70,50,36,39,32,28,76,53,24,30.40,30.09,13,3,13,0.00
2013-3-8,79,56,38,47,37,24,88,58,16,30.36,30.02,17,2,17,0.00
2013-3-9,76,57,40,50,44,39,94,66,33,30.30,30.03,11,2,11,0.00
2013-3-10,82,64,50,56,50,44,91,64,31,30.22,29.77,15,3,15,0.00
2013-3-11,80,66,51,57,53,48,91,67,42,30.09,29.61,9,1,9,0.00
2013-3-12,73,64,53,64,56,43,90,74,48,29.93,29.70,15,3,15,0.11
2013-3-13,73,59,48,44,34,24,76,45,17,30.25,29.89,19,6,19,0.11
2013-3-14,67,53,41,33,27,22,72,40,21,30.24,29.71,17,4,17,0.00
2013-3-15,79,55,36,40,34,23,89,52,22,30.18,29.72,14,2,14,0.00
2013-3-16,84,63,47,51,44,37,90,55,22,30.02,29.49,14,2,14,0.00
2013-3-17,79,62,46,56,47,40,92,63,31,29.95,29.61,8,1,8,0.04
2013-3-18,82,68,58,62,58,55,91,73,47,29.76,29.37,6,1,6,0.05
2013-3-19,84,70,60,62,58,55,91,69,42,29.79,29.29,25,3,25,0.21
2013-3-20,76,64,54,58,53,48,91,71,45,29.80,29.36,12,2,12,0.11
2013-3-21,70,54,40,53,34,20,94,55,16,29.87,29.54,18,4,18,0.01
2013-3-22,74,57,44,45,40,32,76,54,31,29.95,29.64,11,2,11,0.00
2013-3-23,72,61,51,67,56,45,91,84,71,29.75,29.39,14,2,14,1.19
2013-3-24,86,71,63,70,64,59,91,79,49,29.47,28.90,14,3,14,0.38
2013-3-25,69,59,47,59,35,20,82,46,17,29.81,29.36,23,8,23,0.00
2013-3-26,58,47,38,32,26,18,77,46,24,30.22,29.77,21,6,21,0.00
2013-3-27,63,48,34,33,29,24,77,50,23,30.77,29.84,15,4,15,0.00
2013-3-28,72,54,37,38,31,23,81,48,17,30.26,29.86,18,3,18,0.00
2013-3-29,78,58,40,44,37,30,90,54,19,30.25,29.76,10,2,10,0.00
2013-3-30,82,62,44,49,42,38,84,52,23,30.14,29.62,8,2,8,0.00
2013-3-31,86,67,52,55,50,43,81,57,34,29.90,29.45,8,2,8,0.00
2013-4-1,85,72,60,63,57,54,85,63,43,29.73,29.20,18,3,18,0.01
2013-4-2,88,69,54,56,49,41,90,57,23,30.16,29.39,10,2,10,0.00
2013-4-3,84,66,55,62,57,49,89,74,43,30.22,29.86,16,2,16,0.92
2013-4-4,77,70,63,68,62,59,90,78,61,30.12,29.70,10,2,10,0.05
2013-4-5,70,62,54,64,56,48,88,82,75,30.21,29.83,15,3,15,0.06
2013-4-6,78,61,47,54,50,44,91,70,44,30.38,30.06,11,3,11,0.00
2013-4-7,85,67,54,63,54,49,90,67,38,30.33,29.95,11,2,11,0.00
2013-4-8,91,71,55,63,56,50,90,64,26,30.29,29.80,12,2,12,0.00
2013-4-9,90,72,59,65,58,55,89,65,35,30.25,29.86,12,2,12,0.00
2013-4-10,90,73,57,63,59,53,89,65,34,30.17,29.68,9,2,9,0.00
2013-4-11,94,77,67,68,66,61,88,69,38,30.00,29.45,14,2,14,0.04
2013-4-12,87,77,72,70,66,61,83,69,49,29.98,29.57,15,3,15,0.00
2013-4-13,89,74,63,64,52,41,79,50,23,30.05,29.57,11,3,11,0.00
2013-4-14,83,67,59,64,59,53,90,76,49,30.05,29.75,18,2,18,1.09
2013-4-15,91,74,60,67,61,57,90,68,41,30.21,29.69,17,2,17,0.01
2013-4-16,90,74,63,66,62,59,88,68,43,30.22,29.83,13,2,13,0.00
2013-4-17,87,73,66,67,62,59,89,71,43,30.18,29.84,10,2,10,0.00
2013-4-18,94,77,65,67,62,56,89,64,32,30.09,29.61,8,2,8,0.00
2013-4-19,91,78,68,71,66,63,87,70,45,30.05,29.53,17,2,17,0.34
2013-4-20,75,56,50,67,50,46,87,81,63,30.30,29.93,28,4,28,0.47
2013-4-21,71,62,51,60,55,47,88,77,61,30.31,30.09,14,3,14,0.18
2013-4-22,68,63,57,60,56,51,87,79,69,30.30,30.09,13,4,13,0.08
2013-4-23,83,67,56,58,54,51,88,66,38,30.29,29.90,10,3,10,0.00
2013-4-24,91,71,53,60,55,50,89,62,28,30.24,29.78,9,2,9,0.00
2013-4-25,90,75,60,64,60,56,86,61,35,30.18,29.81,12,2,12,0.00
2013-4-26,87,74,65,63,59,50,78,59,43,30.32,29.91,13,3,13,0.00
2013-4-27,90,73,61,62,57,54,85,60,33,30.39,29.77,11,3,11,0.00
2013-4-28,85,72,63,67,60,57,87,68,47,30.24,29.73,8,2,8,0.14
2013-4-29,91,73,64,64,61,57,87,68,33,30.11,29.61,11,1,11,0.08
2013-4-30,93,73,64,66,62,58,89,73,36,30.08,29.68,14,2,14,0.50
2013-5-1,79,70,64,65,62,59,89,78,60,30.10,29.86,12,3,12,0.01
2013-5-2,76,69,66,66,63,60,88,80,68,30.08,29.75,20,3,20,1.31
2013-5-3,70,66,64,64,62,57,89,85,75,29.95,29.73,21,4,21,3.13
2013-5-4,73,68,65,66,63,59,88,84,76,29.91,29.53,11,2,11,0.45
2013-5-5,80,67,58,65,53,44,88,64,31,29.95,29.55,17,5,17,0.01
2013-5-6,79,65,53,56,48,42,79,56,33,30.08,29.66,17,4,17,0.00
2013-5-7,81,67,55,58,52,46,83,61,36,30.07,29.69,15,3,15,0.00
2013-5-8,84,70,57,59,56,53,87,62,39,30.26,29.81,14,3,14,0.00
2013-5-9,93,74,62,64,58,53,89,61,31,30.26,29.68,10,2,10,0.00
2013-5-10,96,77,61,66,60,54,85,58,30,30.19,29.63,8,1,8,0.00
2013-5-11,92,75,66,69,64,60,87,71,44,30.16,29.72,17,2,17,0.17
2013-5-12,88,75,67,67,63,60,89,69,43,30.10,29.65,15,4,15,0.01
2013-5-13,84,70,58,61,48,36,81,48,21,30.28,29.78,17,4,17,0.00
2013-5-14,86,68,51,50,41,30,67,42,16,30.36,29.88,13,2,13,0.00
2013-5-15,95,73,55,62,53,48,87,55,25,30.31,29.69,8,1,8,0.00
2013-5-16,93,76,61,64,59,53,79,57,35,30.16,29.79,9,1,9,0.00
2013-5-17,97,78,64,64,61,57,85,59,31,30.17,29.73,10,2,10,0.00
2013-5-18,97,80,67,68,64,62,87,62,33,30.19,29.59,9,2,9,0.30
2013-5-19,96,77,64,71,66,61,89,71,41,30.13,29.70,11,2,11,0.04
2013-5-20,92,77,68,69,66,62,88,72,45,30.12,29.67,15,1,15,0.13
2013-5-21,90,73,66,72,66,63,90,80,46,29.99,29.64,13,1,13,0.39
2013-5-22,91,76,68,73,66,64,89,75,43,29.97,29.55,10,1,10,0.43
2013-5-23,87,73,68,70,66,62,89,79,54,29.96,29.74,5,1,5,0.00
2013-5-24,92,80,70,68,62,53,89,58,31,30.00,29.57,19,4,19,0.00
2013-5-25,89,75,62,59,55,50,82,54,27,30.14,29.74,13,2,13,0.00
2013-5-26,91,74,57,62,55,49,86,55,26,30.31,29.85,11,2,11,0.00
2013-5-27,91,75,60,65,59,55,88,61,31,30.21,29.79,11,2,11,0.00
2013-5-28,92,77,64,67,63,58,85,64,41,30.18,29.78,13,3,13,0.00
2013-5-29,92,79,68,70,66,64,90,68,44,30.16,29.70,14,3,14,0.00
2013-5-30,91,80,71,70,67,64,89,67,43,30.13,29.70,16,4,16,0.00
2013-5-31,90,79,69,69,66,64,88,68,45,30.10,29.68,14,3,14,0.01
2013-6-1,82,72,70,70,67,66,88,85,66,30.13,29.99,8,1,8,0.00
2013-6-2,80,77,75,72,72,70,88,84,74,29.85,29.67,6,1,6,0.06
2013-6-3,97,80,72,75,71,68,91,76,43,29.95,29.46,17,2,17,0.65
2013-6-4,91,78,73,74,71,68,90,79,51,30.09,29.58,17,1,17,0.04
2013-6-5,88,75,72,73,68,66,88,80,55,30.10,29.68,7,1,7,0.40
2013-6-6,79,74,71,73,70,67,90,87,79,29.96,29.31,14,3,14,1.24
2013-6-7,94,80,70,73,68,65,87,69,45,29.78,29.44,14,3,14,0.13
2013-6-8,98,81,71,74,69,63,88,70,38,30.00,29.70,9,1,9,0.09
2013-6-9,94,79,71,73,70,68,89,76,49,30.13,29.78,11,1,11,0.07
2013-6-10,87,76,74,74,71,70,88,85,61,30.17,29.97,6,1,6,0.01
2013-6-11,76,76,74,71,70,70,86,84,84,30.15,30.07,1,0,1,0.00
2013-6-14,96,82,73,75,71,68,88,70,46,29.75,29.49,13,2,13,0.30
2013-6-15,90,83,74,70,66,63,85,57,46,30.10,29.79,12,3,12,0.01
2013-6-16,94,81,65,73,69,62,89,67,47,30.24,29.87,11,2,11,0.01
2013-6-17,99,84,75,73,71,69,86,67,41,30.27,29.56,9,2,9,0.00
2013-6-18,99,84,64,72,67,61,89,60,37,30.12,29.67,11,2,11,0.01
2013-6-19,101,86,75,73,70,66,88,62,36,30.01,29.61,11,2,11,0.00
2013-6-20,98,80,74,74,70,65,88,75,39,30.10,29.67,21,2,21,0.11
2013-6-21,92,76,71,74,70,66,89,81,54,30.14,29.79,9,1,13,1.18
2013-6-22,93,77,70,76,70,67,91,78,47,30.18,29.81,12,1,12,0.05
2013-6-23,89,75,72,76,71,69,90,86,60,30.23,30.08,4,0,4,0.00
2013-6-24,99,84,73,74,69,65,89,65,36,29.92,29.65,8,2,8,0.00
2013-6-25,100,84,73,74,70,65,88,66,34,29.88,29.69,9,2,9,0.01
2013-6-26,100,81,73,74,69,65,89,70,37,29.83,29.67,7,1,7,0.00
2013-6-27,96,82,71,74,70,66,87,69,44,29.78,29.53,9,1,9,0.02
2013-6-28,95,82,77,74,71,64,85,71,47,29.65,29.49,9,2,9,0.00
2013-6-29,90,80,75,73,71,68,83,73,53,29.63,29.43,8,2,8,0.05
2013-6-30,96,81,72,75,71,67,89,74,45,29.95,29.54,17,2,17,0.67
2013-7-2,88,86,81,73,72,70,73,63,57,29.90,29.83,6,2,6,0.05
2013-7-10,85,81,74,70,69,68,89,68,58,30.00,29.77,10,4,10,0.22
2013-7-11,97,86,75,73,70,67,83,60,43,29.97,29.66,12,2,12,0.01
2013-7-12,93,79,73,73,70,67,88,75,47,29.98,29.57,17,1,17,0.21
2013-7-13,91,76,71,74,70,67,90,81,51,29.97,29.63,17,1,17,0.35
2013-7-14,88,78,71,72,69,68,90,76,54,30.02,29.58,11,2,11,0.00
2013-7-15,85,77,72,74,70,68,89,79,64,30.16,29.75,11,2,11,0.12
2013-7-16,93,82,73,74,70,67,89,70,46,30.26,29.80,15,3,15,0.00
2013-7-17,95,85,75,75,69,66,89,61,41,30.24,29.76,13,3,13,0.00
2013-7-18,94,82,74,73,69,66,88,66,45,30.26,29.63,8,2,8,0.00
2013-7-19,94,78,72,72,69,67,87,75,45,30.19,29.81,7,1,7,0.52
2013-7-20,91,77,71,73,69,67,89,78,54,30.22,29.77,11,1,11,0.01
2013-7-21,92,79,72,74,70,67,88,75,51,30.18,29.80,12,2,12,0.08
2013-7-22,95,79,74,74,71,68,88,79,49,30.21,29.84,11,1,11,0.41
2013-7-23,90,76,73,73,71,68,88,83,57,30.08,29.77,12,1,12,0.44
2013-7-24,90,79,72,74,71,66,88,78,58,29.98,29.62,9,3,9,0.26
2013-7-25,90,81,72,72,70,68,88,70,51,29.91,29.59,12,3,12,0.07
2013-7-26,98,83,73,76,71,68,88,69,42,29.96,29.60,11,1,11,0.12
2013-7-27,102,84,75,75,71,66,88,66,35,29.90,29.49,11,1,11,0.00
2013-7-28,94,80,75,72,70,67,86,73,47,29.97,29.66,7,1,7,0.00
2013-7-29,103,84,72,74,70,67,88,65,35,30.08,29.67,8,1,8,0.00
2013-7-30,101,83,75,74,72,69,85,71,39,30.14,29.81,8,1,8,0.12
2013-7-31,96,81,71,76,71,66,89,74,45,30.12,29.72,11,1,11,0.93
2013-8-1,96,80,72,75,70,65,89,73,45,30.22,29.72,12,1,12,0.01
2013-8-2,92,76,72,75,70,67,88,81,50,29.99,29.89,3,0,3,0.00
2013-8-3,94,82,75,75,71,70,88,70,48,29.84,29.71,11,2,11,0.00
2013-8-4,96,84,77,74,72,70,85,68,47,29.83,29.58,10,3,10,0.00
2013-8-5,98,84,73,75,72,66,88,70,43,29.87,29.53,16,2,16,0.52
2013-8-6,100,80,74,76,72,67,90,78,41,29.99,29.61,15,1,15,0.57
2013-8-7,96,82,76,79,72,69,89,73,46,30.00,29.56,11,2,11,0.01
2013-8-8,102,84,76,76,72,70,88,71,41,29.96,29.58,6,1,6,0.07
2013-8-9,93,81,74,78,72,68,89,75,47,29.99,29.68,5,1,5,0.08
2013-8-10,97,83,74,74,71,69,89,70,42,30.05,29.75,8,1,8,0.00
2013-8-11,88,77,71,72,69,68,90,78,54,30.26,29.83,11,2,11,0.01
2013-8-12,85,77,72,74,70,68,89,79,64,30.39,29.95,7,2,7,0.12
2013-8-13,92,81,73,74,70,67,89,72,46,30.50,30.00,11,3,11,4.57
2013-8-14,102,85,76,75,72,69,87,66,40,30.16,29.74,13,2,13,0.00
2013-8-15,100,84,74,74,70,68,86,67,41,30.21,29.82,8,1,8,0.00
2013-8-16,93,80,74,73,71,68,86,75,48,30.25,29.91,12,1,12,0.06
2013-8-17,94,82,73,76,72,68,89,75,51,30.28,29.85,17,1,17,1.04
2013-8-18,94,80,72,80,72,69,90,79,51,30.37,29.96,10,1,10,0.40
2013-8-19,98,84,76,80,72,69,88,70,43,30.32,29.92,8,1,8,0.01
2013-8-20,98,83,74,76,71,68,87,68,42,30.39,29.90,8,2,8,0.01
2013-8-21,93,81,74,76,71,68,86,73,49,30.40,29.97,11,2,11,0.01
2013-8-22,94,78,74,74,71,68,85,79,50,30.39,30.14,11,1,11,0.08
2013-8-23,91,76,73,77,70,66,87,83,53,30.41,30.02,5,1,5,0.73
2013-8-24,89,79,73,74,70,68,87,76,55,30.39,30.02,9,1,9,0.01
2013-8-25,86,77,74,72,70,66,86,77,59,30.47,30.14,13,2,13,0.22
2013-8-26,92,80,72,71,68,66,85,69,45,30.43,29.97,11,2,11,0.01
2013-8-27,93,80,72,70,67,64,84,66,44,30.39,29.95,7,2,9,0.00
2013-8-28,95,80,70,72,66,64,83,65,40,30.30,29.92,8,1,8,0.00
2013-8-29,95,82,72,70,67,64,82,61,41,30.25,29.83,10,2,10,0.00
2013-8-30,101,85,74,72,69,67,83,62,38,30.24,29.85,7,1,7,0.01
2013-8-31,98,80,73,73,69,64,85,70,43,30.18,29.84,11,1,11,0.00
2013-9-1,98,83,73,73,69,67,84,66,39,30.24,29.89,7,1,7,0.00
2013-9-2,98,82,72,72,68,66,84,65,42,30.20,29.78,10,2,10,0.00
2013-9-3,94,81,74,73,70,68,85,71,47,30.17,29.91,5,1,5,0.05
2013-9-4,99,84,74,77,70,66,85,65,40,30.28,29.91,11,1,11,0.00
2013-9-5,100,85,73,72,69,65,84,61,39,30.30,29.92,8,1,8,0.00
2013-9-6,97,82,70,73,68,64,83,66,42,30.24,29.84,17,1,17,0.74
2013-9-7,96,85,73,70,66,64,77,54,39,30.22,29.83,9,2,9,0.01
2013-9-8,97,77,70,70,65,62,86,68,35,30.23,29.85,9,1,9,0.00
2013-9-9,95,81,69,70,65,63,84,62,36,30.26,29.89,11,2,11,0.00
2013-9-10,93,84,69,70,66,63,83,56,39,30.24,29.92,13,3,13,0.00
2013-9-11,93,83,73,70,67,64,79,60,45,30.29,29.94,12,3,12,0.00
2013-9-12,93,80,72,72,68,65,85,68,47,30.28,29.75,10,1,10,0.02
2013-9-13,95,82,72,71,66,61,83,62,38,30.12,29.64,9,1,9,0.00
2013-9-14,99,83,71,72,67,64,82,61,38,30.04,29.73,8,1,8,0.06
2013-9-15,96,79,74,71,69,66,85,74,43,30.24,29.92,11,1,11,0.01
2013-9-16,98,84,74,73,69,66,86,64,36,30.27,29.85,11,2,11,0.00
2013-9-17,93,80,73,74,68,66,86,68,45,30.24,29.88,11,2,11,0.01
2013-9-18,88,78,72,70,67,63,80,69,51,30.21,29.94,17,3,17,0.01
2013-9-19,92,77,70,70,67,63,83,71,45,30.22,29.91,11,2,11,0.12
2013-9-20,92,77,68,71,65,63,86,68,43,30.20,29.82,8,1,8,0.01
2013-9-21,95,79,69,72,65,64,85,66,38,30.15,29.72,6,1,6,0.00
2013-9-22,85,76,72,70,68,66,83,76,60,30.13,29.76,11,2,11,0.15
2013-9-23,84,75,72,71,69,67,86,80,66,30.26,29.94,5,1,5,0.22
2013-9-24,86,76,74,74,70,69,86,82,62,30.25,29.82,7,1,7,0.38
2013-9-25,89,77,71,71,69,66,87,75,52,30.11,29.84,11,2,11,0.01
2013-9-26,88,77,71,71,67,62,86,73,51,30.21,29.77,17,4,17,0.00
2013-9-27,88,75,67,65,63,60,82,67,45,30.22,29.95,11,4,11,0.00
2013-9-28,79,73,69,66,64,60,83,73,61,30.32,30.06,12,3,12,0.15
2013-9-29,88,75,67,66,63,61,84,68,44,30.32,29.96,11,3,11,0.00
2013-9-30,89,75,68,68,63,60,83,67,47,30.30,29.98,10,2,10,0.00
2013-10-1,90,76,68,66,62,59,77,62,44,30.40,30.00,8,2,8,0.01
2013-10-2,89,75,64,64,61,59,85,65,42,30.40,30.07,11,2,11,0.00
2013-10-3,94,78,68,69,65,62,84,66,42,30.40,30.04,9,2,9,0.00
2013-10-4,98,80,71,73,67,63,85,66,36,30.40,30.01,7,1,7,0.00
2013-10-5,93,79,70,74,66,64,86,68,43,30.36,30.00,8,2,8,0.00
2013-10-6,97,81,71,73,67,65,86,66,41,30.24,29.90,7,1,7,0.00
2013-10-7,92,78,71,70,67,64,83,71,46,30.18,29.78,5,1,5,0.00
2013-10-8,84,75,68,69,66,60,79,74,58,30.30,29.94,14,4,14,0.08
2013-10-9,73,66,61,60,58,55,84,76,63,30.40,30.24,12,4,12,0.00
2013-10-10,88,71,60,62,58,56,86,66,34,30.40,30.03,11,2,11,0.00
2013-10-11,83,69,62,68,61,56,83,76,58,30.37,29.71,11,3,11,0.08
2013-10-12,89,74,62,64,58,55,82,59,34,30.14,29.77,12,3,12,0.00
2013-10-13,90,74,62,62,58,55,83,61,32,30.16,29.83,11,2,11,0.00
2013-10-14,83,72,64,64,61,60,86,70,50,30.20,29.90,12,3,12,0.00
2013-10-15,74,70,68,65,62,60,82,76,68,30.18,29.87,14,4,14,0.27
2013-10-16,90,74,65,67,63,60,85,70,45,30.11,29.75,7,2,8,0.00
2013-10-17,94,76,64,73,64,56,87,68,42,30.22,29.70,8,1,8,0.00
2013-10-18,91,74,68,73,65,58,86,76,46,30.18,29.90,5,0,5,0.27
2013-10-19,91,77,62,70,65,56,84,69,47,30.26,29.75,12,2,12,0.31
2013-10-20,85,74,67,67,62,58,83,66,47,30.13,29.98,9,2,9,0.01
2013-10-21,73,67,62,64,60,56,82,78,71,30.18,29.81,12,3,12,0.00
2013-10-22,89,76,67,71,67,58,85,75,53,30.16,29.67,8,2,8,0.67
2013-10-23,77,68,57,67,55,46,87,65,35,30.22,29.83,17,5,17,0.01
2013-10-24,77,60,53,48,43,38,82,55,27,30.40,30.20,11,2,11,0.00
2013-10-25,78,62,49,52,48,42,87,62,36,30.52,30.23,16,3,16,0.00
2013-10-26,79,61,46,52,46,42,85,61,31,30.51,30.15,9,2,9,0.00
2013-10-27,82,62,46,59,46,37,90,62,23,30.46,30.17,8,1,8,0.00
2013-10-28,86,66,52,58,53,48,87,66,35,30.44,30.14,9,1,9,0.00
2013-10-29,85,69,58,61,57,54,85,68,44,30.48,30.14,11,2,11,0.00
2013-10-30,86,71,61,63,60,56,84,68,44,30.43,30.07,9,2,9,0.00
2013-10-31,89,74,63,67,61,57,85,66,41,30.34,29.84,11,1,11,0.00
2013-11-1,87,75,67,67,64,61,82,69,46,30.14,29.77,9,2,9,0.00
2013-11-2,76,67,57,69,60,53,86,79,52,30.14,29.84,14,2,14,0.74
2013-11-3,75,61,51,53,46,38,85,59,28,30.44,30.13,15,4,15,0.00
2013-11-4,78,65,56,59,53,46,82,66,50,30.45,29.77,14,4,14,0.00
2013-11-5,70,65,62,60,57,56,82,76,67,30.02,29.79,12,6,12,0.00
2013-11-6,74,67,62,65,60,56,82,78,67,30.23,29.75,12,4,12,1.54
2013-11-7,83,72,67,64,61,57,82,69,45,30.27,29.88,11,2,11,0.00
2013-11-8,72,62,52,60,48,40,75,62,51,30.39,30.18,17,5,17,0.00
2013-11-9,79,65,55,59,54,48,84,67,46,30.43,30.12,11,2,11,0.00
2013-11-10,78,64,59,62,58,54,89,81,50,30.31,30.17,9,2,9,0.00
2013-11-11,82,66,54,61,56,50,87,71,47,30.29,29.94,8,1,8,0.00
2013-11-12,81,67,62,63,56,47,89,71,49,30.17,29.91,14,3,14,0.00
2013-11-13,62,50,44,46,38,32,70,62,52,30.64,30.17,17,6,17,0.00
2013-11-14,71,56,41,54,46,32,85,71,50,30.68,30.32,11,3,11,0.00
2013-11-15,68,62,55,61,56,51,88,83,74,30.36,30.06,5,1,5,0.12
2013-11-16,76,67,61,66,61,57,90,82,67,30.26,29.98,8,2,8,0.01
2013-11-17,82,70,63,68,64,56,88,82,62,30.19,29.95,8,1,8,0.10
2013-11-18,77,71,67,72,66,63,89,84,75,30.17,29.87,8,1,8,0.04
2013-11-19,73,65,57,66,53,42,88,66,50,30.25,30.01,13,4,13,0.00
2013-11-20,73,64,57,63,57,51,84,78,68,30.33,30.17,11,3,11,0.00
2013-11-21,76,68,64,66,61,59,86,79,65,30.42,30.22,11,3,11,0.01
2013-11-22,81,70,64,69,63,59,91,79,58,30.42,30.14,9,1,9,0.02
2013-11-23,84,70,61,73,60,56,90,72,47,30.36,29.66,13,3,13,1.85
2013-11-24,66,57,47,58,46,39,78,68,54,30.32,29.93,17,5,17,0.00
2013-11-25,75,60,48,56,50,41,84,69,47,30.32,29.96,14,3,14,0.00
2013-11-26,78,69,60,68,63,55,90,82,69,30.22,29.67,10,2,10,0.69
2013-11-27,70,54,37,66,47,32,90,78,64,30.73,29.88,23,7,23,0.06
2013-11-28,58,45,31,43,35,25,81,69,55,30.89,30.64,11,4,11,0.00
2013-11-29,68,54,44,50,44,39,84,70,47,30.85,30.64,12,3,12,0.00
2013-11-30,66,57,53,56,51,46,88,79,69,30.73,30.52,12,4,12,0.00
2013-12-1,75,61,52,58,54,48,91,78,52,30.55,30.22,11,2,11,0.00
2013-12-2,72,60,53,58,53,49,92,78,47,30.24,29.99,15,2,15,0.00
2013-12-3,78,62,48,63,54,46,94,75,47,30.34,30.09,8,1,8,0.00
2013-12-4,66,65,63,61,60,58,85,83,80,30.28,30.01,3,0,3,0.00
2013-12-5,86,70,58,72,61,56,91,74,47,30.32,30.08,4,0,7,0.00
2013-12-6,86,72,64,70,63,60,91,75,50,30.29,30.03,8,1,8,0.00
2013-12-7,86,73,65,71,64,61,90,74,49,30.31,30.03,4,1,7,0.00
2013-12-8,84,71,61,68,62,58,91,76,50,30.36,30.08,5,1,9,0.00
2013-12-9,86,73,63,70,64,60,92,75,51,30.30,30.02,7,1,7,0.00
2013-12-10,82,69,55,67,62,46,91,80,58,30.42,30.04,17,2,17,0.01
2013-12-11,70,59,50,57,50,41,80,72,61,30.52,30.33,8,3,8,0.00
2013-12-12,68,57,44,51,36,22,82,51,20,30.55,30.34,12,3,12,0.00
2013-12-13,69,55,41,53,46,37,90,75,53,30.66,30.29,12,2,12,0.00
2013-12-14,78,66,54,67,60,50,92,83,65,30.31,29.94,13,2,13,0.01
2013-12-15,68,60,47,64,55,41,94,83,66,30.35,29.94,23,4,23,1.00
2013-12-16,61,47,37,41,38,34,92,74,43,30.66,30.35,10,2,10,0.00
2013-12-17,70,50,37,44,39,36,95,70,33,30.65,30.40,8,1,8,0.00
2013-12-18,68,50,40,42,35,23,86,61,22,30.57,30.41,14,3,14,0.00
2013-12-19,76,54,37,54,46,34,96,77,44,30.66,30.40,9,1,9,0.00
2013-12-20,81,63,48,65,55,47,96,77,45,30.41,30.20,7,1,7,0.00
2013-12-21,85,71,60,69,62,57,95,76,49,30.29,30.05,11,2,11,0.00
2013-12-22,86,73,67,70,67,65,95,81,54,30.28,29.99,8,1,8,0.00
2013-12-23,83,73,65,70,67,60,94,81,58,30.28,29.94,19,2,19,0.00
2013-12-24,64,55,44,60,42,28,90,63,31,30.54,30.16,18,5,18,0.00
2013-12-25,67,51,38,54,43,29,89,73,53,30.55,30.35,11,4,11,0.00
2013-12-26,52,51,50,49,48,47,92,90,88,30.40,30.35,8,2,8,0.00
2013-12-29,72,68,58,69,64,55,94,89,83,30.17,29.95,8,2,8,0.00
2013-12-30,67,56,48,55,48,45,95,77,48,30.46,30.12,11,3,11,0.00
2013-12-31,66,56,52,50,48,46,92,75,52,30.60,30.44,8,1,8,0.00
2014-1-1,59,56,52,57,53,48,96,91,82,30.57,30.32,4,1,4,0.00
2014-1-2,65,60,53,64,59,46,98,94,75,30.33,30.00,17,3,17,0.12